createdAt,value
2023-03-30T00:01:10.400Z,10.95
2023-03-30T00:06:06.115Z,6.45
2023-03-30T00:08:33.463Z,7.57
2023-03-30T00:11:02.079Z,8.93
2023-03-30T00:13:29.484Z,9.15
2023-03-30T00:15:56.416Z,7.72
2023-03-30T00:18:23.088Z,8.45
2023-03-30T00:20:50.756Z,7.78
2023-03-30T00:23:18.330Z,8.68
2023-03-30T00:25:45.236Z,7.38
2023-03-30T00:28:11.889Z,9.35
2023-03-30T00:30:39.698Z,8.52
2023-03-30T00:33:06.359Z,6.00
2023-03-30T00:35:33.728Z,7.43
2023-03-30T00:38:04.280Z,9.38
2023-03-30T00:40:32.938Z,7.82
2023-03-30T00:43:05.469Z,5.83
2023-03-30T00:45:37.025Z,7.53
2023-03-30T00:48:10.034Z,6.80
2023-03-30T00:50:40.623Z,6.82
2023-03-30T00:53:12.920Z,10.05
2023-03-30T00:55:40.809Z,8.93
2023-03-30T00:58:09.863Z,8.98
2023-03-30T01:00:39.319Z,10.68
2023-03-30T01:03:33.080Z,7.40
2023-03-30T01:06:02.837Z,7.25
2023-03-30T01:08:32.484Z,7.85
2023-03-30T01:11:03.688Z,9.77
2023-03-30T01:13:33.182Z,7.93
2023-03-30T01:16:21.004Z,10.30
2023-03-30T01:19:25.464Z,9.38
2023-03-30T01:22:07.024Z,7.05
2023-03-30T01:24:58.574Z,10.48
2023-03-30T01:27:40.206Z,9.27
2023-03-30T01:30:24.036Z,7.28
2023-03-30T01:33:09.395Z,8.25
2023-03-30T01:35:48.159Z,11.40
2023-03-30T01:38:56.629Z,12.32
2023-03-30T01:44:15.241Z,9.30
2023-03-30T01:46:48.183Z,7.68
2023-03-30T01:49:20.755Z,9.95
2023-03-30T01:52:00.290Z,9.18
2023-03-30T01:57:21.562Z,8.73
2023-03-30T02:00:13.013Z,9.60
2023-03-30T02:02:54.840Z,10.73
2023-03-30T02:05:24.496Z,8.38
2023-03-30T02:08:01.236Z,12.10
2023-03-30T02:10:31.847Z,11.02
2023-03-30T02:13:00.255Z,8.65
2023-03-30T02:15:36.860Z,7.93
2023-03-30T02:18:04.841Z,9.45
2023-03-30T02:20:33.125Z,9.73
2023-03-30T02:23:01.377Z,15.52
2023-03-30T02:25:28.556Z,12.13
2023-03-30T02:27:55.547Z,15.70
2023-03-30T02:30:22.158Z,22.98
2023-03-30T02:32:53.383Z,21.33
2023-03-30T02:35:53.450Z,19.75
2023-03-30T02:38:20.052Z,26.08
2023-03-30T02:40:58.165Z,24.33
2023-03-30T02:43:52.491Z,24.20
2023-03-30T02:46:49.393Z,25.58
2023-03-30T02:49:20.805Z,30.52
2023-03-30T02:52:33.822Z,34.83
2023-03-30T02:55:23.084Z,34.53
2023-03-30T02:58:14.533Z,42.60
2023-03-30T03:01:17.867Z,38.03
2023-03-30T03:03:58.936Z,38.53
2023-03-30T03:06:32.218Z,33.88
2023-03-30T03:08:59.567Z,31.15
2023-03-30T03:11:28.665Z,27.48
2023-03-30T03:13:55.733Z,24.35
2023-03-30T03:16:23.311Z,28.98
2023-03-30T03:19:13.432Z,17.48
2023-03-30T03:21:40.524Z,16.38
2023-03-30T03:24:07.301Z,15.55
2023-03-30T03:26:52.891Z,15.65
2023-03-30T03:29:20.692Z,18.92
2023-03-30T03:31:47.297Z,14.20
2023-03-30T03:34:13.975Z,13.50
2023-03-30T03:36:54.806Z,16.92
2023-03-30T03:39:24.877Z,15.80
2023-03-30T03:41:55.725Z,15.95
2023-03-30T03:44:22.354Z,13.73
2023-03-30T03:46:49.348Z,12.77
2023-03-30T03:49:16.197Z,10.93
2023-03-30T03:51:42.786Z,12.35
2023-03-30T03:54:09.370Z,14.48
2023-03-30T03:56:36.432Z,15.25
2023-03-30T03:59:04.647Z,13.23
2023-03-30T04:01:31.673Z,8.90
2023-03-30T04:03:58.203Z,8.60
2023-03-30T04:06:27.022Z,9.25
2023-03-30T04:08:53.786Z,10.57
2023-03-30T04:11:27.367Z,7.60
2023-03-30T04:14:14.177Z,9.63
2023-03-30T04:17:15.917Z,6.93
2023-03-30T04:20:08.952Z,7.07
2023-03-30T04:23:02.090Z,9.52
2023-03-30T04:25:51.892Z,7.03
2023-03-30T04:28:21.750Z,7.18
2023-03-30T04:31:12.880Z,8.88
2023-03-30T04:33:51.794Z,11.35
2023-03-30T04:39:43.925Z,11.43
2023-03-30T04:42:34.162Z,9.50
2023-03-30T04:45:27.251Z,4.13
2023-03-30T04:48:28.978Z,5.25
2023-03-30T04:51:17.979Z,3.42
2023-03-30T04:54:16.926Z,3.88
2023-03-30T04:57:03.845Z,5.70
2023-03-30T04:59:41.735Z,5.70
2023-03-30T05:02:43.931Z,9.30
2023-03-30T05:05:43.077Z,4.22
2023-03-30T05:08:28.958Z,5.35
2023-03-30T05:11:13.917Z,4.00
2023-03-30T05:14:09.728Z,6.40
2023-03-30T05:16:55.931Z,13.38
2023-03-30T05:19:48.872Z,13.75
2023-03-30T05:22:44.236Z,5.13
2023-03-30T05:25:45.248Z,8.93
2023-03-30T05:28:32.487Z,9.30
2023-03-30T05:31:18.128Z,6.03
2023-03-30T05:34:03.384Z,5.35
2023-03-30T05:36:48.327Z,9.45
2023-03-30T05:39:27.160Z,10.43
2023-03-30T05:42:11.386Z,5.32
2023-03-30T05:45:01.325Z,3.83
2023-03-30T05:47:46.671Z,6.63
2023-03-30T05:50:25.455Z,7.80
2023-03-30T05:53:04.310Z,5.88
2023-03-30T05:55:39.684Z,3.80
2023-03-30T05:58:25.454Z,6.72
2023-03-30T06:01:09.317Z,6.65
2023-03-30T06:03:39.862Z,5.80
2023-03-30T06:06:09.275Z,8.13
2023-03-30T06:08:36.977Z,6.22
2023-03-30T06:11:06.842Z,6.00
2023-03-30T06:13:52.798Z,10.48
2023-03-30T06:16:19.404Z,5.45
2023-03-30T06:18:46.926Z,8.25
2023-03-30T06:21:15.511Z,8.18
2023-03-30T06:23:54.762Z,6.55
2023-03-30T06:26:24.401Z,11.57
2023-03-30T06:28:51.934Z,9.60
2023-03-30T06:31:18.753Z,6.95
2023-03-30T06:33:51.178Z,5.50
2023-03-30T06:36:18.577Z,4.72
2023-03-30T06:38:46.608Z,8.30
2023-03-30T06:41:16.502Z,6.65
2023-03-30T06:43:46.732Z,6.70
2023-03-30T06:46:15.858Z,7.03
2023-03-30T06:48:46.766Z,9.90
2023-03-30T06:51:32.080Z,7.80
2023-03-30T06:54:01.371Z,10.45
2023-03-30T06:56:28.281Z,7.22
2023-03-30T06:59:15.680Z,8.80
2023-03-30T07:02:01.492Z,8.63
2023-03-30T07:04:46.868Z,5.35
2023-03-30T07:07:23.676Z,5.70
2023-03-30T07:09:50.304Z,5.85
2023-03-30T07:12:16.923Z,8.20
2023-03-30T07:14:44.862Z,10.60
2023-03-30T07:17:11.556Z,9.15
2023-03-30T07:19:38.307Z,6.70
2023-03-30T07:22:05.088Z,4.22
2023-03-30T07:24:33.600Z,6.78
2023-03-30T07:27:00.202Z,7.88
2023-03-30T07:29:28.223Z,8.70
2023-03-30T07:31:58.977Z,9.02
2023-03-30T07:34:26.552Z,8.77
2023-03-30T07:36:56.634Z,8.98
2023-03-30T07:39:27.987Z,3.60
2023-03-30T07:41:55.595Z,9.25
2023-03-30T07:44:23.120Z,7.90
2023-03-30T07:46:50.323Z,9.00
2023-03-30T07:49:22.785Z,6.55
2023-03-30T07:51:49.649Z,7.78
2023-03-30T07:57:12.247Z,8.00
2023-03-30T07:59:41.346Z,8.52
2023-03-30T08:02:18.558Z,11.88
2023-03-30T08:04:52.968Z,4.70
2023-03-30T08:07:47.677Z,8.82
2023-03-30T08:10:21.376Z,6.32
2023-03-30T08:12:48.073Z,8.57
2023-03-30T08:15:14.713Z,7.53
2023-03-30T08:17:41.451Z,5.97
2023-03-30T08:20:11.535Z,6.65
2023-03-30T08:22:38.603Z,6.18
2023-03-30T08:25:05.731Z,5.85
2023-03-30T08:27:32.980Z,7.70
2023-03-30T08:30:00.254Z,10.32
2023-03-30T08:32:26.834Z,4.70
2023-03-30T08:34:55.033Z,7.57
2023-03-30T08:37:21.769Z,9.02
2023-03-30T08:39:48.772Z,7.68
2023-03-30T08:42:36.675Z,5.22
2023-03-30T08:45:07.368Z,7.10
2023-03-30T08:47:49.089Z,5.03
2023-03-30T08:50:30.646Z,7.85
2023-03-30T08:52:58.211Z,5.18
2023-03-30T08:55:47.070Z,6.22
2023-03-30T08:58:35.772Z,5.68
2023-03-30T09:01:03.786Z,5.10
2023-03-30T09:03:46.339Z,4.10
2023-03-30T09:06:45.867Z,7.00
2023-03-30T09:09:26.589Z,6.93
2023-03-30T09:12:08.431Z,8.95
2023-03-30T09:15:00.985Z,7.53
2023-03-30T09:17:59.826Z,6.97
2023-03-30T09:20:47.008Z,4.50
2023-03-30T09:23:28.516Z,8.45
2023-03-30T09:26:31.616Z,8.32
2023-03-30T09:29:15.349Z,13.32
2023-03-30T09:32:19.996Z,9.00
2023-03-30T09:35:26.863Z,12.55
2023-03-30T09:37:58.065Z,6.85
2023-03-30T09:40:36.451Z,6.63
2023-03-30T09:43:33.285Z,9.68
2023-03-30T09:46:05.933Z,7.88
2023-03-30T09:48:47.331Z,9.00
2023-03-30T09:51:25.845Z,9.77
2023-03-30T09:54:04.288Z,9.70
2023-03-30T09:56:47.295Z,9.65
2023-03-30T09:59:33.839Z,16.55
2023-03-30T10:02:13.240Z,10.27
2023-03-30T10:05:02.929Z,7.30
2023-03-30T10:07:43.724Z,9.45
2023-03-30T10:10:28.697Z,12.45
2023-03-30T10:13:05.776Z,7.30
2023-03-30T10:15:42.157Z,8.55
2023-03-30T10:18:52.570Z,8.85
2023-03-30T10:21:27.165Z,5.72
2023-03-30T10:24:09.809Z,10.30
2023-03-30T10:26:38.215Z,10.02
2023-03-30T10:29:07.928Z,9.98
2023-03-30T10:31:37.007Z,6.07
2023-03-30T10:34:19.134Z,11.65
2023-03-30T10:36:51.865Z,8.57
2023-03-30T10:39:30.629Z,8.13
2023-03-30T10:42:01.715Z,9.35
2023-03-30T10:44:47.408Z,6.43
2023-03-30T10:47:29.060Z,7.30
2023-03-30T10:50:02.013Z,10.23
2023-03-30T10:52:56.294Z,9.00
2023-03-30T10:55:42.012Z,7.75
2023-03-30T10:58:39.559Z,8.65
2023-03-30T11:01:27.916Z,7.65
2023-03-30T11:04:20.415Z,7.88
2023-03-30T11:06:54.524Z,9.32
2023-03-30T11:09:29.587Z,9.63
2023-03-30T11:12:21.211Z,4.13
2023-03-30T11:15:26.496Z,5.18
2023-03-30T11:18:04.535Z,5.97
2023-03-30T11:20:36.227Z,4.60
2023-03-30T11:23:30.760Z,3.13
2023-03-30T11:26:27.690Z,4.30
2023-03-30T11:29:30.826Z,7.45
2023-03-30T11:32:22.134Z,5.90
2023-03-30T11:35:19.049Z,4.43
2023-03-30T11:37:53.079Z,7.25
2023-03-30T11:40:27.345Z,7.95
2023-03-30T11:42:54.832Z,4.70
2023-03-30T11:45:53.082Z,10.52
2023-03-30T11:48:33.422Z,5.15
2023-03-30T11:51:28.372Z,8.82
2023-03-30T11:54:24.765Z,9.85
2023-03-30T11:57:03.190Z,10.77
2023-03-30T12:00:08.589Z,12.07
2023-03-30T12:03:01.766Z,9.23
2023-03-30T12:05:34.876Z,5.05
2023-03-30T12:08:13.651Z,12.30
2023-03-30T12:10:42.515Z,12.85
2023-03-30T12:13:18.282Z,9.48
2023-03-30T12:16:03.006Z,9.23
2023-03-30T12:18:42.183Z,10.10
2023-03-30T12:21:27.145Z,10.43
2023-03-30T12:24:10.060Z,10.25
2023-03-30T12:26:41.653Z,12.55
2023-03-30T12:29:52.566Z,9.90
2023-03-30T12:32:04.867Z,15.82
2023-03-30T12:34:36.801Z,10.63
2023-03-30T12:37:14.922Z,10.95
2023-03-30T12:39:50.517Z,9.55
2023-03-30T12:42:39.521Z,8.95
2023-03-30T12:45:15.482Z,9.95
2023-03-30T12:48:04.846Z,16.60
2023-03-30T12:50:46.094Z,11.23
2023-03-30T12:53:27.933Z,11.77
2023-03-30T12:56:12.042Z,12.68
2023-03-30T12:59:09.594Z,15.48
2023-03-30T13:02:14.058Z,12.65
2023-03-30T13:04:44.145Z,12.00
2023-03-30T13:07:39.143Z,12.13
2023-03-30T13:10:30.966Z,15.30
2023-03-30T13:13:01.307Z,12.52
2023-03-30T13:15:50.234Z,13.10
2023-03-30T13:18:16.769Z,11.82
2023-03-30T13:20:46.327Z,9.68
2023-03-30T13:23:12.852Z,9.95
2023-03-30T13:25:39.541Z,13.65
2023-03-30T13:28:34.688Z,12.43
2023-03-30T13:31:11.735Z,19.13
2023-03-30T13:33:45.845Z,13.10
2023-03-30T13:36:17.847Z,9.85
2023-03-30T13:38:56.140Z,13.50
2023-03-30T13:41:39.780Z,14.60
2023-03-30T13:44:43.145Z,15.82
2023-03-30T13:47:18.776Z,20.27
2023-03-30T13:50:00.723Z,7.78
2023-03-30T13:52:43.556Z,11.07
2023-03-30T13:55:19.225Z,9.57
2023-03-30T13:57:45.789Z,7.28
2023-03-30T14:00:54.041Z,7.65
2023-03-30T14:03:29.366Z,7.50
2023-03-30T14:06:15.256Z,10.27
2023-03-30T14:08:44.989Z,8.65
2023-03-30T14:11:24.518Z,13.18
2023-03-30T14:16:25.564Z,8.00
2023-03-30T14:18:53.968Z,12.95
2023-03-30T14:21:24.049Z,12.32
2023-03-30T14:23:52.950Z,11.77
2023-03-30T14:26:24.915Z,15.27
2023-03-30T14:29:24.630Z,10.63
2023-03-30T14:32:08.159Z,7.53
2023-03-30T14:34:36.032Z,9.65
2023-03-30T14:37:08.490Z,9.85
2023-03-30T14:39:55.715Z,9.55
2023-03-30T14:42:26.511Z,5.13
2023-03-30T14:44:55.518Z,10.48
2023-03-30T14:47:25.906Z,5.97
2023-03-30T14:49:56.858Z,8.70
2023-03-30T14:52:33.778Z,7.03
2023-03-30T14:55:06.032Z,9.93
2023-03-30T14:57:40.277Z,6.82
2023-03-30T15:00:17.176Z,6.65
2023-03-30T15:02:45.312Z,10.43
2023-03-30T15:05:17.506Z,7.78
2023-03-30T15:07:48.606Z,10.10
2023-03-30T15:11:01.818Z,9.23
2023-03-30T15:13:42.577Z,6.80
2023-03-30T15:16:15.920Z,8.50
2023-03-30T15:18:42.602Z,11.05
2023-03-30T15:21:12.543Z,9.73
2023-03-30T15:23:42.066Z,10.50
2023-03-30T15:28:47.240Z,14.52
2023-03-30T15:31:16.138Z,11.52
2023-03-30T15:33:54.117Z,7.97
2023-03-30T15:36:25.309Z,9.35
2023-03-30T15:38:53.201Z,5.72
2023-03-30T15:41:43.475Z,10.23
2023-03-30T15:44:12.067Z,8.88
2023-03-30T15:46:40.437Z,10.53
2023-03-30T15:49:08.204Z,8.20
2023-03-30T15:51:47.641Z,8.63
2023-03-30T15:57:03.964Z,9.35
2023-03-30T15:59:36.799Z,8.05
2023-03-30T16:02:15.300Z,9.05
2023-03-30T16:04:42.181Z,10.67
2023-03-30T16:07:24.670Z,9.10
2023-03-30T16:09:52.052Z,12.05
2023-03-30T16:12:26.931Z,6.18
2023-03-30T16:14:54.055Z,6.05
2023-03-30T16:17:20.779Z,9.80
2023-03-30T16:19:47.347Z,8.63
2023-03-30T16:22:15.633Z,6.32
2023-03-30T16:24:43.045Z,9.43
2023-03-30T16:27:11.343Z,9.73
2023-03-30T16:29:38.029Z,8.93
2023-03-30T16:32:04.970Z,7.25
2023-03-30T16:34:31.769Z,11.00
2023-03-30T16:36:58.393Z,8.77
2023-03-30T16:39:28.110Z,13.77
2023-03-30T16:41:56.030Z,8.65
2023-03-30T16:44:24.715Z,10.38
2023-03-30T16:46:52.081Z,13.30
2023-03-30T16:49:21.916Z,11.13
2023-03-30T16:51:49.130Z,9.68
2023-03-30T16:54:27.739Z,10.80
2023-03-30T16:56:56.610Z,8.23
2023-03-30T16:59:25.846Z,10.88
2023-03-30T17:01:52.699Z,6.65
2023-03-30T17:04:19.631Z,10.13
2023-03-30T17:06:46.284Z,10.50
2023-03-30T17:09:15.550Z,10.82
2023-03-30T17:11:42.492Z,7.68
2023-03-30T17:14:09.202Z,6.55
2023-03-30T17:16:36.520Z,9.88
2023-03-30T17:19:03.387Z,11.32
2023-03-30T17:21:29.985Z,11.77
2023-03-30T17:23:57.861Z,12.95
2023-03-30T17:26:24.454Z,10.32
2023-03-30T17:28:52.172Z,11.15
2023-03-30T17:31:21.028Z,13.60
2023-03-30T17:33:48.821Z,14.77
2023-03-30T17:36:23.442Z,10.63
2023-03-30T17:38:50.888Z,11.77
2023-03-30T17:41:19.427Z,12.50
2023-03-30T17:43:47.962Z,15.57
2023-03-30T17:46:17.366Z,14.47
2023-03-30T17:48:44.640Z,12.38
2023-03-30T17:51:11.436Z,15.63
2023-03-30T17:53:38.129Z,16.02
2023-03-30T17:56:05.115Z,10.45
2023-03-30T17:58:34.408Z,16.65
2023-03-30T18:01:03.795Z,12.07
2023-03-30T18:03:31.284Z,14.07
2023-03-30T18:06:00.170Z,18.08
2023-03-30T18:08:28.214Z,19.27
2023-03-30T18:11:00.097Z,16.90
2023-03-30T18:13:28.652Z,17.80
2023-03-30T18:15:57.286Z,15.25
2023-03-30T18:18:27.245Z,18.25
2023-03-30T18:20:56.485Z,10.52
2023-03-30T18:23:23.593Z,15.82
2023-03-30T18:25:50.238Z,19.33
2023-03-30T18:28:25.737Z,13.60
2023-03-30T18:30:55.232Z,10.02
2023-03-30T18:35:50.580Z,12.13
2023-03-30T18:38:20.455Z,12.90
2023-03-30T18:40:50.001Z,13.90
2023-03-30T18:43:16.832Z,13.30
2023-03-30T18:45:46.452Z,19.10
2023-03-30T18:48:15.655Z,16.40
2023-03-30T18:50:44.684Z,16.77
2023-03-30T18:53:13.281Z,13.15
2023-03-30T18:55:42.898Z,8.37
2023-03-30T19:00:44.999Z,11.82
2023-03-30T19:03:13.155Z,8.27
2023-03-30T19:05:41.502Z,13.05
2023-03-30T19:08:22.688Z,12.43
2023-03-30T19:10:51.809Z,10.23
2023-03-30T19:13:20.502Z,11.80
2023-03-30T19:15:48.205Z,14.60
2023-03-30T19:18:15.738Z,9.27
2023-03-30T19:20:42.454Z,8.73
2023-03-30T19:23:14.664Z,9.32
2023-03-30T19:25:42.808Z,7.07
2023-03-30T19:28:10.818Z,9.23
2023-03-30T19:30:39.598Z,8.32
2023-03-30T19:33:11.059Z,9.98
2023-03-30T19:35:40.845Z,10.15
2023-03-30T19:38:07.581Z,10.00
2023-03-30T19:40:34.154Z,8.25
2023-03-30T19:43:00.758Z,8.77
2023-03-30T19:45:27.415Z,7.97
2023-03-30T19:47:54.081Z,7.63
2023-03-30T19:52:50.956Z,5.93
2023-03-30T19:55:19.407Z,5.97
2023-03-30T19:57:46.523Z,9.80
2023-03-30T20:00:15.870Z,8.40
2023-03-30T20:05:12.862Z,7.70
2023-03-30T20:07:40.535Z,10.18
2023-03-30T20:10:14.247Z,9.93
2023-03-30T20:12:41.010Z,8.23
2023-03-30T20:15:09.900Z,8.73
2023-03-30T20:17:37.791Z,5.95
2023-03-30T20:20:08.578Z,6.78
2023-03-30T20:22:36.702Z,7.82
2023-03-30T20:25:07.794Z,11.30
2023-03-30T20:27:35.723Z,10.77
2023-03-30T20:30:03.926Z,8.98
2023-03-30T20:32:30.619Z,7.45
2023-03-30T20:34:57.865Z,9.23
2023-03-30T20:37:24.489Z,10.90
2023-03-30T20:39:51.126Z,16.00
2023-03-30T20:42:25.786Z,8.00
2023-03-30T20:44:53.368Z,8.90
2023-03-30T20:47:23.157Z,8.00
2023-03-30T20:49:49.825Z,6.80
2023-03-30T20:52:16.725Z,9.45
2023-03-30T20:54:44.698Z,7.57
2023-03-30T20:57:11.801Z,10.68
2023-03-30T20:59:39.408Z,8.68
2023-03-30T21:02:06.425Z,8.70
2023-03-30T21:04:33.876Z,9.75
2023-03-30T21:07:00.812Z,11.48
2023-03-30T21:09:27.860Z,10.30
2023-03-30T21:11:54.679Z,13.63
2023-03-30T21:14:21.681Z,13.07
2023-03-30T21:16:48.328Z,13.13
2023-03-30T21:19:14.903Z,8.07
2023-03-30T21:21:41.474Z,5.00
2023-03-30T21:24:09.982Z,10.73
2023-03-30T21:26:37.615Z,8.65
2023-03-30T21:29:05.013Z,7.68
2023-03-30T21:31:31.668Z,10.88
2023-03-30T21:33:58.543Z,10.52
2023-03-30T21:36:25.207Z,11.70
2023-03-30T21:38:51.911Z,10.32
2023-03-30T21:41:20.999Z,14.80
2023-03-30T21:43:48.348Z,13.95
2023-03-30T21:46:18.952Z,8.45
2023-03-30T21:48:46.221Z,11.32
2023-03-30T21:51:16.437Z,9.50
2023-03-30T21:53:44.858Z,7.50
2023-03-30T21:56:12.326Z,7.38
2023-03-30T21:58:39.652Z,10.07
2023-03-30T22:01:12.265Z,9.32
2023-03-30T22:03:41.949Z,7.85
2023-03-30T22:06:10.775Z,10.20
2023-03-30T22:08:37.428Z,8.07
2023-03-30T22:11:06.752Z,13.75
2023-03-30T22:13:33.972Z,11.43
2023-03-30T22:16:00.798Z,11.98
2023-03-30T22:18:27.889Z,13.82
2023-03-30T22:20:57.761Z,9.18
2023-03-30T22:23:24.342Z,6.03
2023-03-30T22:25:51.297Z,8.90
2023-03-30T22:28:17.882Z,9.63
2023-03-30T22:30:45.209Z,9.65
2023-03-30T22:33:12.417Z,9.02
2023-03-30T22:35:40.949Z,8.98
2023-03-30T22:38:09.089Z,7.05
2023-03-30T22:40:36.032Z,8.98
2023-03-30T22:43:03.514Z,10.68
2023-03-30T22:45:30.631Z,8.65
2023-03-30T22:47:58.825Z,9.60
2023-03-30T22:50:27.522Z,12.55
2023-03-30T22:52:55.834Z,6.17
2023-03-30T22:55:23.484Z,9.80
2023-03-30T22:57:53.922Z,9.93
2023-03-30T23:00:21.177Z,10.32
2023-03-30T23:02:49.342Z,7.25
2023-03-30T23:05:16.965Z,9.23
2023-03-30T23:07:48.118Z,8.23
2023-03-30T23:10:21.029Z,6.05
2023-03-30T23:12:47.648Z,8.25
2023-03-30T23:15:14.737Z,6.80
2023-03-30T23:17:41.603Z,8.73
2023-03-30T23:20:12.106Z,6.85
2023-03-30T23:22:39.273Z,13.07
2023-03-30T23:25:07.124Z,5.72
2023-03-30T23:27:34.846Z,5.93
2023-03-30T23:30:01.408Z,12.57
2023-03-30T23:32:28.002Z,8.25
2023-03-30T23:34:54.596Z,4.68
2023-03-30T23:37:24.896Z,5.05
2023-03-30T23:39:51.566Z,9.75
2023-03-30T23:42:18.167Z,8.65
2023-03-30T23:44:45.294Z,7.82
2023-03-30T23:47:11.887Z,6.95
2023-03-30T23:49:38.386Z,6.47
2023-03-30T23:52:04.924Z,7.50
2023-03-30T23:54:31.593Z,8.02
2023-03-30T23:56:58.293Z,8.27
2023-03-30T23:59:25.290Z,9.68
